Time,TemperatureF,DewpointF,PressureIn,WindDirection,WindDirectionDegrees,WindSpeedMPH,WindSpeedGustMPH,Humidity,HourlyPrecipIn,Conditions,Clouds,dailyrainin,SoftwareType,DateUTC
2013-01-21 00:08:00,34.0,21.6,29.88,West,270,0.0,-999.0,60,-99.99,,,0.00,Acu-Link.com,2013-01-21 05:08:00,
2013-01-21 00:23:00,39.7,20.6,29.86,NNW,337,5.3,-999.0,46,-99.99,,,0.00,Acu-Link.com,2013-01-21 05:23:00,
2013-01-21 00:39:00,39.9,20.3,29.85,NNE,22,2.2,-999.0,45,-99.99,,,0.00,Acu-Link.com,2013-01-21 05:39:00,
2013-01-21 00:54:00,39.4,19.8,29.86,West,270,0.0,-999.0,45,-99.99,,,0.00,Acu-Link.com,2013-01-21 05:54:00,
2013-01-21 01:09:00,38.8,20.3,29.87,West,270,3.2,-999.0,47,-99.99,,,0.00,Acu-Link.com,2013-01-21 06:09:00,
2013-01-21 01:24:00,39.0,19.5,29.87,SW,225,2.2,-999.0,45,-99.99,,,0.00,Acu-Link.com,2013-01-21 06:24:00,
2013-01-21 01:39:00,37.0,20.6,29.88,NE,45,0.0,-999.0,51,-99.99,,,0.00,Acu-Link.com,2013-01-21 06:39:00,
2013-01-21 01:54:00,35.2,20.2,29.89,ENE,67,0.0,-999.0,54,-99.99,,,0.00,Acu-Link.com,2013-01-21 06:54:00,
2013-01-21 02:09:00,33.6,21.6,29.89,West,270,0.0,-999.0,61,-99.99,,,0.00,Acu-Link.com,2013-01-21 07:09:00,
2013-01-21 02:24:00,32.4,20.9,29.87,East,90,0.0,-999.0,62,-99.99,,,0.00,Acu-Link.com,2013-01-21 07:24:00,
2013-01-21 02:39:00,31.3,20.6,29.87,ENE,67,0.0,-999.0,64,-99.99,,,0.00,Acu-Link.com,2013-01-21 07:39:00,
2013-01-21 02:55:00,30.2,21.3,29.88,ENE,67,0.0,-999.0,69,-99.99,,,0.00,Acu-Link.com,2013-01-21 07:55:00,
2013-01-21 03:10:00,30.6,20.6,29.89,ENE,67,0.0,-999.0,66,-99.99,,,0.00,Acu-Link.com,2013-01-21 08:10:00,
2013-01-21 03:25:00,29.5,19.9,29.88,NE,45,0.0,-999.0,67,-99.99,,,0.00,Acu-Link.com,2013-01-21 08:25:00,
2013-01-21 03:40:00,29.3,20.8,29.88,WNW,292,0.0,-999.0,70,-99.99,,,0.00,Acu-Link.com,2013-01-21 08:40:00,
2013-01-21 03:55:00,29.8,20.5,29.87,West,270,0.0,-999.0,68,-99.99,,,0.00,Acu-Link.com,2013-01-21 08:55:00,
2013-01-21 04:16:00,32.9,20.6,29.86,NNW,337,1.7,-999.0,60,-99.99,,,0.00,Acu-Link.com,2013-01-21 09:16:00,
2013-01-21 05:02:00,32.4,20.1,29.86,NW,315,0.0,-999.0,60,-99.99,,,0.00,Acu-Link.com,2013-01-21 10:02:00,
2013-01-21 05:17:00,33.6,19.6,29.85,West,270,2.7,-999.0,56,-99.99,,,0.00,Acu-Link.com,2013-01-21 10:17:00,
2013-01-21 05:32:00,30.6,20.6,29.86,East,90,0.0,-999.0,66,-99.99,,,0.00,Acu-Link.com,2013-01-21 10:32:00,
2013-01-21 05:47:00,29.8,20.5,29.85,NE,45,0.0,-999.0,68,-99.99,,,0.00,Acu-Link.com,2013-01-21 10:47:00,
2013-01-21 06:02:00,28.9,20.7,29.83,WNW,292,1.7,-999.0,71,-99.99,,,0.00,Acu-Link.com,2013-01-21 11:02:00,
2013-01-21 06:17:00,28.4,21.2,29.84,NW,315,1.7,-999.0,74,-99.99,,,0.00,Acu-Link.com,2013-01-21 11:17:00,
2013-01-21 06:32:00,27.9,21.0,29.85,WSW,247,0.0,-999.0,75,-99.99,,,0.00,Acu-Link.com,2013-01-21 11:32:00,
2013-01-21 06:47:00,27.0,21.1,29.85,WNW,292,0.0,-999.0,78,-99.99,,,0.00,Acu-Link.com,2013-01-21 11:47:00,
2013-01-21 07:02:00,26.6,21.3,29.85,NW,315,0.0,-999.0,80,-99.99,,,0.00,Acu-Link.com,2013-01-21 12:02:00,
2013-01-21 07:18:00,25.9,21.5,29.84,NE,45,0.0,-999.0,83,-99.99,,,0.00,Acu-Link.com,2013-01-21 12:18:00,
2013-01-21 07:33:00,26.1,21.4,29.83,ESE,112,0.0,-999.0,82,-99.99,,,0.00,Acu-Link.com,2013-01-21 12:33:00,
2013-01-21 07:48:00,26.1,21.9,29.83,NNE,22,0.0,-999.0,84,-99.99,,,0.00,Acu-Link.com,2013-01-21 12:48:00,
2013-01-21 08:03:00,26.4,22.2,29.84,SSW,202,0.0,-999.0,84,-99.99,,,0.00,Acu-Link.com,2013-01-21 13:03:00,
2013-01-21 08:18:00,27.5,23.3,29.84,NW,315,1.1,-999.0,84,-99.99,,,0.00,Acu-Link.com,2013-01-21 13:18:00,
2013-01-21 08:33:00,29.1,24.6,29.85,NNE,22,0.0,-999.0,83,-99.99,,,0.00,Acu-Link.com,2013-01-21 13:33:00,
2013-01-21 08:48:00,32.0,25.3,29.85,NE,45,0.0,-999.0,76,-99.99,,,0.00,Acu-Link.com,2013-01-21 13:48:00,
2013-01-21 09:03:00,36.3,21.7,29.83,WNW,292,0.0,-999.0,55,-99.99,,,0.00,Acu-Link.com,2013-01-21 14:03:00,
2013-01-21 09:18:00,39.4,24.6,29.84,SSE,157,0.0,-999.0,55,-99.99,,,0.00,Acu-Link.com,2013-01-21 14:18:00,
2013-01-21 09:34:00,40.1,23.9,29.84,ESE,112,0.0,-999.0,52,-99.99,,,0.00,Acu-Link.com,2013-01-21 14:34:00,
2013-01-21 09:49:00,40.5,23.8,29.86,West,270,1.1,-999.0,51,-99.99,,,0.00,Acu-Link.com,2013-01-21 14:49:00,
2013-01-21 10:04:00,44.2,25.8,29.86,West,270,0.0,-999.0,48,-99.99,,,0.00,Acu-Link.com,2013-01-21 15:04:00,
2013-01-21 10:19:00,47.1,27.4,29.85,South,180,2.7,-999.0,46,-99.99,,,0.00,Acu-Link.com,2013-01-21 15:19:00,
2013-01-21 10:34:00,45.5,27.0,29.85,NE,45,4.7,-999.0,48,-99.99,,,0.00,Acu-Link.com,2013-01-21 15:34:00,
2013-01-21 10:49:00,46.0,24.8,29.83,NE,45,10.9,-999.0,43,-99.99,,,0.00,Acu-Link.com,2013-01-21 15:49:00,
2013-01-21 11:04:00,45.9,23.5,29.82,NNW,337,7.8,-999.0,41,-99.99,,,0.00,Acu-Link.com,2013-01-21 16:04:00,
2013-01-21 11:19:00,46.6,24.2,29.81,NW,315,7.3,-999.0,41,-99.99,,,0.00,Acu-Link.com,2013-01-21 16:19:00,
2013-01-21 11:34:00,47.5,24.4,29.80,ENE,67,5.3,-999.0,40,-99.99,,,0.00,Acu-Link.com,2013-01-21 16:34:00,
2013-01-21 11:50:00,48.2,25.6,29.79,West,270,7.8,-999.0,41,-99.99,,,0.00,Acu-Link.com,2013-01-21 16:50:00,
2013-01-21 12:05:00,48.4,26.9,29.78,West,270,6.8,-999.0,43,-99.99,,,0.00,Acu-Link.com,2013-01-21 17:05:00,
2013-01-21 12:20:00,50.4,27.6,29.77,NW,315,4.2,-999.0,41,-99.99,,,0.00,Acu-Link.com,2013-01-21 17:20:00,
2013-01-21 12:35:00,48.7,25.5,29.76,West,270,3.7,-999.0,40,-99.99,,,0.00,Acu-Link.com,2013-01-21 17:35:00,
2013-01-21 13:05:00,51.3,21.7,29.73,West,270,3.7,-999.0,31,-99.99,,,0.00,Acu-Link.com,2013-01-21 18:05:00,
2013-01-21 13:20:00,51.3,20.1,29.71,West,270,6.8,-999.0,29,-99.99,,,0.00,Acu-Link.com,2013-01-21 18:20:00,
2013-01-21 13:36:00,51.8,19.7,29.71,West,270,9.9,-999.0,28,-99.99,,,0.00,Acu-Link.com,2013-01-21 18:36:00,
2013-01-21 13:51:00,50.9,18.1,29.68,NW,315,7.8,-999.0,27,-99.99,,,0.00,Acu-Link.com,2013-01-21 18:51:00,
2013-01-21 14:06:00,50.7,19.6,29.67,East,90,13.0,-999.0,29,-99.99,,,0.00,Acu-Link.com,2013-01-21 19:06:00,
2013-01-21 14:21:00,51.3,21.7,29.68,West,270,9.4,-999.0,31,-99.99,,,0.00,Acu-Link.com,2013-01-21 19:21:00,
2013-01-21 14:36:00,50.9,23.5,29.67,SSW,202,5.8,-999.0,34,-99.99,,,0.00,Acu-Link.com,2013-01-21 19:36:00,
2013-01-21 14:51:00,50.7,23.4,29.67,WSW,247,13.0,-999.0,34,-99.99,,,0.00,Acu-Link.com,2013-01-21 19:51:00,
2013-01-21 15:06:00,50.2,23.6,29.66,NE,45,7.3,-999.0,35,-99.99,,,0.00,Acu-Link.com,2013-01-21 20:06:00,
2013-01-21 15:21:00,50.2,24.3,29.66,West,270,5.3,-999.0,36,-99.99,,,0.00,Acu-Link.com,2013-01-21 20:21:00,
2013-01-21 15:37:00,50.0,24.8,29.66,SW,225,8.9,-999.0,37,-99.99,,,0.00,Acu-Link.com,2013-01-21 20:37:00,
2013-01-21 15:52:00,48.9,25.7,29.66,West,270,9.9,-999.0,40,-99.99,,,0.00,Acu-Link.com,2013-01-21 20:52:00,
2013-01-21 16:07:00,48.7,24.9,29.66,WSW,247,9.4,-999.0,39,-99.99,,,0.00,Acu-Link.com,2013-01-21 21:07:00,
2013-01-21 16:22:00,47.7,25.7,29.66,NNE,22,8.3,-999.0,42,-99.99,,,0.00,Acu-Link.com,2013-01-21 21:22:00,
2013-01-21 16:37:00,47.1,24.6,29.67,SSE,157,4.7,-999.0,41,-99.99,,,0.00,Acu-Link.com,2013-01-21 21:37:00,
2013-01-21 16:52:00,46.4,24.0,29.67,NNW,337,5.8,-999.0,41,-99.99,,,0.00,Acu-Link.com,2013-01-21 21:52:00,
2013-01-21 17:07:00,45.7,23.9,29.67,NNW,337,7.3,-999.0,42,-99.99,,,0.00,Acu-Link.com,2013-01-21 22:07:00,
2013-01-21 17:22:00,45.0,22.7,29.68,WSW,247,4.2,-999.0,41,-99.99,,,0.00,Acu-Link.com,2013-01-21 22:22:00,
2013-01-21 17:37:00,44.8,15.3,29.68,WNW,292,5.8,-999.0,30,-99.99,,,0.00,Acu-Link.com,2013-01-21 22:37:00,
2013-01-21 17:53:00,43.3,15.4,29.69,WNW,292,6.3,-999.0,32,-99.99,,,0.00,Acu-Link.com,2013-01-21 22:53:00,
2013-01-21 18:08:00,43.5,13.4,29.70,WSW,247,9.4,-999.0,29,-99.99,,,0.00,Acu-Link.com,2013-01-21 23:08:00,
2013-01-21 18:23:00,42.6,14.1,29.71,WSW,247,1.7,-999.0,31,-99.99,,,0.00,Acu-Link.com,2013-01-21 23:23:00,
2013-01-21 18:38:00,41.7,12.6,29.70,WNW,292,6.8,-999.0,30,-99.99,,,0.00,Acu-Link.com,2013-01-21 23:38:00,
2013-01-21 18:53:00,41.5,11.6,29.68,WSW,247,4.7,-999.0,29,-99.99,,,0.00,Acu-Link.com,2013-01-21 23:53:00,
2013-01-21 19:08:00,41.2,9.8,29.70,West,270,7.8,-999.0,27,-99.99,,,0.00,Acu-Link.com,2013-01-22 00:08:00,
2013-01-21 19:23:00,39.9,11.0,29.71,NNW,337,2.7,-999.0,30,-99.99,,,0.00,Acu-Link.com,2013-01-22 00:23:00,
2013-01-21 19:38:00,39.7,10.1,29.71,North,0,4.2,-999.0,29,-99.99,,,0.00,Acu-Link.com,2013-01-22 00:38:00,
2013-01-21 19:53:00,39.6,8.4,29.72,West,270,6.8,-999.0,27,-99.99,,,0.00,Acu-Link.com,2013-01-22 00:53:00,
2013-01-21 20:09:00,38.8,8.5,29.72,NNW,337,5.8,-999.0,28,-99.99,,,0.00,Acu-Link.com,2013-01-22 01:09:00,
2013-01-21 20:24:00,37.9,10.7,29.73,WNW,292,4.2,-999.0,32,-99.99,,,0.00,Acu-Link.com,2013-01-22 01:24:00,
2013-01-21 20:39:00,37.6,9.7,29.73,WSW,247,5.8,-999.0,31,-99.99,,,0.00,Acu-Link.com,2013-01-22 01:39:00,
2013-01-21 20:54:00,36.5,10.2,29.74,SW,225,4.7,-999.0,33,-99.99,,,0.00,Acu-Link.com,2013-01-22 01:54:00,
2013-01-21 21:09:00,36.5,9.5,29.73,WSW,247,8.9,-999.0,32,-99.99,,,0.00,Acu-Link.com,2013-01-22 02:09:00,
2013-01-21 21:24:00,36.0,9.0,29.73,SSW,202,9.9,-999.0,32,-99.99,,,0.00,Acu-Link.com,2013-01-22 02:24:00,
2013-01-21 21:39:00,35.2,9.0,29.73,WNW,292,7.3,-999.0,33,-99.99,,,0.00,Acu-Link.com,2013-01-22 02:39:00,
2013-01-21 21:54:00,34.5,10.3,29.74,WNW,292,11.4,-999.0,36,-99.99,,,0.00,Acu-Link.com,2013-01-22 02:54:00,
2013-01-21 22:09:00,33.6,8.3,29.73,WNW,292,4.2,-999.0,34,-99.99,,,0.00,Acu-Link.com,2013-01-22 03:09:00,
2013-01-21 22:25:00,33.3,8.0,29.73,NNW,337,5.8,-999.0,34,-99.99,,,0.00,Acu-Link.com,2013-01-22 03:25:00,
2013-01-21 22:40:00,32.4,7.8,29.75,West,270,4.7,-999.0,35,-99.99,,,0.00,Acu-Link.com,2013-01-22 03:40:00,
2013-01-21 22:55:00,32.0,8.1,29.76,WNW,292,3.7,-999.0,36,-99.99,,,0.00,Acu-Link.com,2013-01-22 03:55:00,
2013-01-21 23:10:00,31.3,9.2,29.78,West,270,6.3,-999.0,39,-99.99,,,0.00,Acu-Link.com,2013-01-22 04:10:00,
2013-01-21 23:25:00,31.3,7.5,29.78,WSW,247,3.7,-999.0,36,-99.99,,,0.00,Acu-Link.com,2013-01-22 04:25:00,
2013-01-21 23:40:00,30.7,7.5,29.77,SW,225,10.4,-999.0,37,-99.99,,,0.00,Acu-Link.com,2013-01-22 04:40:00,
2013-01-21 23:55:00,30.0,7.5,29.76,NW,315,3.7,-999.0,38,-99.99,,,0.00,Acu-Link.com,2013-01-22 04:55:00,